createdAt,value
2023-01-17T00:01:51.980Z,96918.91
2023-01-17T00:04:39.909Z,96913.97
2023-01-17T00:07:25.230Z,96907.38
2023-01-17T00:09:56.762Z,96885.16
2023-01-17T00:12:25.999Z,96885.38
2023-01-17T00:14:54.849Z,96892.53
2023-01-17T00:17:26.021Z,96909.63
2023-01-17T00:20:11.375Z,96909.41
2023-01-17T00:22:57.102Z,96922.91
2023-01-17T00:25:47.511Z,96922.56
2023-01-17T00:28:14.924Z,96921.13
2023-01-17T00:30:41.846Z,96925.88
2023-01-17T00:33:08.632Z,96930.25
2023-01-17T00:35:35.283Z,96944.19
2023-01-17T00:38:07.941Z,96946.84
2023-01-17T00:40:36.833Z,96935.34
2023-01-17T00:43:23.683Z,96914.00
2023-01-17T00:46:09.487Z,96917.78
2023-01-17T00:48:56.396Z,96936.09
2023-01-17T00:51:43.284Z,96936.09
2023-01-17T00:54:29.228Z,96935.97
2023-01-17T00:57:14.679Z,96950.75
2023-01-17T01:00:00.043Z,96955.34
2023-01-17T01:02:46.296Z,96960.31
2023-01-17T01:05:33.018Z,96933.91
2023-01-17T01:08:18.850Z,96908.19
2023-01-17T01:11:05.656Z,96925.28
2023-01-17T01:13:52.518Z,96923.78
2023-01-17T01:16:38.041Z,96925.16
2023-01-17T01:19:24.543Z,96927.22
2023-01-17T01:22:09.916Z,96943.22
2023-01-17T01:24:55.360Z,96944.78
2023-01-17T01:27:41.150Z,96958.84
2023-01-17T01:30:27.052Z,96962.97
2023-01-17T01:33:12.602Z,96972.66
2023-01-17T01:35:39.515Z,96959.34
2023-01-17T01:38:06.513Z,96939.78
2023-01-17T01:40:33.428Z,96915.03
2023-01-17T01:43:03.175Z,96915.63
2023-01-17T01:45:32.393Z,96904.22
2023-01-17T01:48:13.809Z,96924.69
2023-01-17T01:50:40.825Z,96900.53
2023-01-17T01:53:08.227Z,96889.59
2023-01-17T01:55:40.616Z,96898.78
2023-01-17T01:58:15.482Z,96894.69
2023-01-17T02:00:42.497Z,96879.63
2023-01-17T02:03:15.365Z,96874.38
2023-01-17T02:05:43.791Z,96874.25
2023-01-17T02:08:14.589Z,96859.53
2023-01-17T02:10:42.618Z,96855.50
2023-01-17T02:13:10.309Z,96859.16
2023-01-17T02:15:50.205Z,96850.94
2023-01-17T02:18:24.261Z,96863.38
2023-01-17T02:21:29.317Z,96851.06
2023-01-17T02:24:17.251Z,96861.94
2023-01-17T02:26:55.743Z,96829.47
2023-01-17T02:29:22.438Z,96868.34
2023-01-17T02:31:58.166Z,96869.03
2023-01-17T02:34:32.834Z,96866.44
2023-01-17T02:37:26.046Z,96866.44
2023-01-17T02:40:05.054Z,96857.97
2023-01-17T02:42:46.889Z,96844.50
2023-01-17T02:45:19.696Z,96832.78
2023-01-17T02:47:46.949Z,96832.97
2023-01-17T02:50:23.830Z,96846.25
2023-01-17T02:53:32.831Z,96862.34
2023-01-17T02:56:18.108Z,96861.56
2023-01-17T02:59:06.053Z,96852.19
2023-01-17T03:01:33.994Z,96850.81
2023-01-17T03:04:04.061Z,96874.47
2023-01-17T03:06:30.886Z,96874.38
2023-01-17T03:08:57.592Z,96868.31
2023-01-17T03:11:24.867Z,96863.63
2023-01-17T03:13:58.461Z,96863.09
2023-01-17T03:16:28.613Z,96869.97
2023-01-17T03:18:55.467Z,96865.78
2023-01-17T03:21:23.606Z,96859.88
2023-01-17T03:23:50.617Z,96855.38
2023-01-17T03:26:17.480Z,96854.13
2023-01-17T03:28:44.593Z,96834.22
2023-01-17T03:31:15.934Z,96832.16
2023-01-17T03:33:42.808Z,96837.34
2023-01-17T03:36:09.810Z,96836.09
2023-01-17T03:38:37.577Z,96832.38
2023-01-17T03:41:05.397Z,96843.09
2023-01-17T03:43:32.199Z,96849.69
2023-01-17T03:46:07.033Z,96857.91
2023-01-17T03:48:34.431Z,96847.22
2023-01-17T03:51:01.296Z,96865.25
2023-01-17T03:53:28.164Z,96882.38
2023-01-17T03:55:54.956Z,96876.44
2023-01-17T03:58:22.855Z,96853.16
2023-01-17T04:00:49.858Z,96852.75
2023-01-17T04:03:16.921Z,96871.41
2023-01-17T04:05:43.900Z,96875.19
2023-01-17T04:08:11.244Z,96869.50
2023-01-17T04:10:38.067Z,96885.69
2023-01-17T04:13:05.905Z,96903.81
2023-01-17T04:15:33.520Z,96922.13
2023-01-17T04:18:01.132Z,96915.94
2023-01-17T04:20:35.126Z,96938.97
2023-01-17T04:23:02.551Z,96933.28
2023-01-17T04:25:31.034Z,96913.31
2023-01-17T04:27:59.813Z,96918.84
2023-01-17T04:30:28.349Z,96917.94
2023-01-17T04:32:55.921Z,96905.84
2023-01-17T04:35:24.903Z,96905.75
2023-01-17T04:37:52.599Z,96906.09
2023-01-17T04:40:19.574Z,96897.25
2023-01-17T04:42:49.140Z,96882.41
2023-01-17T04:45:16.218Z,96895.66
2023-01-17T04:47:43.341Z,96899.00
2023-01-17T04:50:13.070Z,96902.63
2023-01-17T04:52:40.205Z,96907.47
2023-01-17T04:55:07.663Z,96905.63
2023-01-17T04:57:35.026Z,96881.53
2023-01-17T05:00:01.892Z,96866.44
2023-01-17T05:02:29.020Z,96867.47
2023-01-17T05:04:56.568Z,96888.56
2023-01-17T05:07:23.716Z,96889.09
2023-01-17T05:09:50.520Z,96887.59
2023-01-17T05:12:18.617Z,96886.38
2023-01-17T05:14:45.457Z,96875.38
2023-01-17T05:17:12.689Z,96879.78
2023-01-17T05:19:39.719Z,96876.56
2023-01-17T05:22:15.240Z,96870.44
2023-01-17T05:24:48.316Z,96892.44
2023-01-17T05:27:17.932Z,96901.34
2023-01-17T05:29:44.731Z,96891.81
2023-01-17T05:32:12.217Z,96868.03
2023-01-17T05:34:39.032Z,96878.00
2023-01-17T05:37:06.671Z,96881.59
2023-01-17T05:39:33.387Z,96896.91
2023-01-17T05:42:00.237Z,96898.81
2023-01-17T05:44:27.874Z,96899.50
2023-01-17T05:46:55.439Z,96908.25
2023-01-17T05:49:22.383Z,96920.22
2023-01-17T05:51:49.335Z,96918.28
2023-01-17T05:54:18.700Z,96913.53
2023-01-17T05:56:45.541Z,96921.41
2023-01-17T05:59:14.184Z,96911.16
2023-01-17T06:01:41.328Z,96895.88
2023-01-17T06:04:08.358Z,96900.06
2023-01-17T06:06:35.207Z,96912.88
2023-01-17T06:09:02.061Z,96926.13
2023-01-17T06:11:28.869Z,96928.56
2023-01-17T06:13:55.715Z,96921.53
2023-01-17T06:16:22.625Z,96925.19
2023-01-17T06:18:49.542Z,96925.09
2023-01-17T06:21:16.428Z,96929.78
2023-01-17T06:23:43.275Z,96938.53
2023-01-17T06:26:10.628Z,96942.44
2023-01-17T06:28:37.604Z,96934.56
2023-01-17T06:31:08.953Z,96940.50
2023-01-17T06:33:36.194Z,96953.63
2023-01-17T06:36:03.401Z,96948.25
2023-01-17T06:38:30.322Z,96950.56
2023-01-17T06:41:00.424Z,96954.53
2023-01-17T06:43:32.645Z,96952.47
2023-01-17T06:46:00.844Z,96959.31
2023-01-17T06:48:28.092Z,96954.88
2023-01-17T06:50:54.932Z,96961.28
2023-01-17T06:53:21.848Z,96961.53
2023-01-17T06:55:48.818Z,96976.56
2023-01-17T06:58:15.647Z,96973.00
2023-01-17T07:00:42.494Z,96958.66
2023-01-17T07:03:21.225Z,96974.19
2023-01-17T07:05:48.749Z,96981.31
2023-01-17T07:08:17.149Z,96993.59
2023-01-17T07:10:45.088Z,96998.16
2023-01-17T07:13:14.613Z,96979.22
2023-01-17T07:15:41.577Z,96985.03
2023-01-17T07:18:08.461Z,96997.91
2023-01-17T07:20:35.494Z,97004.69
2023-01-17T07:23:02.504Z,97004.88
2023-01-17T07:25:31.677Z,97005.16
2023-01-17T07:28:00.921Z,97004.09
2023-01-17T07:30:27.989Z,97007.91
2023-01-17T07:32:56.955Z,97013.63
2023-01-17T07:35:26.808Z,97021.09
2023-01-17T07:37:55.038Z,97011.78
2023-01-17T07:40:22.832Z,97007.59
2023-01-17T07:42:50.019Z,97014.06
2023-01-17T07:45:17.737Z,97033.06
2023-01-17T07:47:44.890Z,97023.41
2023-01-17T07:50:13.697Z,97030.00
2023-01-17T07:52:41.174Z,97023.31
2023-01-17T07:55:08.973Z,97031.50
2023-01-17T07:57:36.060Z,97020.69
2023-01-17T08:00:04.475Z,97017.03
2023-01-17T08:02:39.036Z,97005.91
2023-01-17T08:05:06.079Z,96994.38
2023-01-17T08:07:32.907Z,97000.56
2023-01-17T08:10:01.300Z,97003.97
2023-01-17T08:12:29.524Z,97016.59
2023-01-17T08:14:56.522Z,97023.34
2023-01-17T08:17:23.389Z,97034.81
2023-01-17T08:19:52.206Z,97035.59
2023-01-17T08:22:19.125Z,97040.69
2023-01-17T08:24:46.061Z,97029.16
2023-01-17T08:27:12.893Z,97023.25
2023-01-17T08:29:42.886Z,97028.59
2023-01-17T08:32:09.768Z,97034.78
2023-01-17T08:34:36.674Z,97015.91
2023-01-17T08:37:03.571Z,96997.28
2023-01-17T08:39:30.388Z,96998.84
2023-01-17T08:41:58.235Z,96984.59
2023-01-17T08:44:25.138Z,97002.88
2023-01-17T08:46:52.411Z,97001.91
2023-01-17T08:49:22.604Z,96985.41
2023-01-17T08:51:49.715Z,96990.19
2023-01-17T08:54:19.532Z,96977.56
2023-01-17T08:56:47.992Z,96965.56
2023-01-17T08:59:15.264Z,96968.34
2023-01-17T09:01:45.909Z,96964.97
2023-01-17T09:04:14.356Z,96959.94
2023-01-17T09:06:45.468Z,96964.19
2023-01-17T09:09:13.789Z,96960.72
2023-01-17T09:11:43.927Z,96945.63
2023-01-17T09:14:14.337Z,96946.94
2023-01-17T09:16:41.326Z,96954.66
2023-01-17T09:19:09.452Z,96945.53
2023-01-17T09:21:36.270Z,96950.88
2023-01-17T09:24:03.167Z,96942.19
2023-01-17T09:26:30.695Z,96945.94
2023-01-17T09:28:58.799Z,96954.78
2023-01-17T09:31:27.290Z,96941.41
2023-01-17T09:33:55.878Z,96942.34
2023-01-17T09:36:23.969Z,96937.84
2023-01-17T09:38:56.894Z,96942.69
2023-01-17T09:41:30.665Z,96931.28
2023-01-17T09:44:22.551Z,96940.72
2023-01-17T09:46:54.261Z,96938.56
2023-01-17T09:49:47.904Z,96928.50
2023-01-17T09:52:21.536Z,96931.38
2023-01-17T09:54:50.982Z,96917.38
2023-01-17T09:57:38.371Z,96899.53
2023-01-17T10:00:13.839Z,96902.75
2023-01-17T10:03:06.317Z,96911.38
2023-01-17T10:05:54.800Z,96902.41
2023-01-17T10:08:43.764Z,96890.47
2023-01-17T10:11:29.603Z,96885.09
2023-01-17T10:14:21.240Z,96880.38
2023-01-17T10:17:16.497Z,96885.09
2023-01-17T10:19:58.611Z,96876.16
2023-01-17T10:23:06.110Z,96863.53
2023-01-17T10:25:47.224Z,96861.81
2023-01-17T10:28:25.339Z,96856.44
2023-01-17T10:30:56.428Z,96848.69
2023-01-17T10:33:29.094Z,96843.47
2023-01-17T10:36:10.801Z,96848.50
2023-01-17T10:38:41.130Z,96850.03
2023-01-17T10:41:15.835Z,96853.91
2023-01-17T10:44:03.875Z,96847.84
2023-01-17T10:46:46.486Z,96839.09
2023-01-17T10:49:20.281Z,96844.78
2023-01-17T10:52:08.632Z,96831.50
2023-01-17T10:54:51.480Z,96814.31
2023-01-17T10:57:22.914Z,96833.69
2023-01-17T10:59:50.631Z,96826.78
2023-01-17T11:02:25.225Z,96791.56
2023-01-17T11:04:54.681Z,96791.09
2023-01-17T11:07:27.385Z,96789.22
2023-01-17T11:09:56.859Z,96775.75
2023-01-17T11:12:30.334Z,96771.84
2023-01-17T11:15:05.658Z,96773.84
2023-01-17T11:17:37.619Z,96779.19
2023-01-17T11:20:12.237Z,96780.88
2023-01-17T11:22:40.424Z,96760.16
2023-01-17T11:25:07.662Z,96751.53
2023-01-17T11:27:37.702Z,96741.72
2023-01-17T11:30:19.512Z,96728.88
2023-01-17T11:33:00.204Z,96723.97
2023-01-17T11:35:33.004Z,96734.88
2023-01-17T11:38:05.257Z,96739.69
2023-01-17T11:40:41.226Z,96729.94
2023-01-17T11:43:27.742Z,96715.16
2023-01-17T11:46:17.480Z,96733.66
2023-01-17T11:48:51.428Z,96727.59
2023-01-17T11:51:43.491Z,96721.13
2023-01-17T11:54:31.971Z,96732.41
2023-01-17T11:57:02.687Z,96704.28
2023-01-17T11:59:35.290Z,96711.72
2023-01-17T12:02:38.199Z,96748.13
2023-01-17T12:05:55.215Z,96713.25
2023-01-17T12:08:28.636Z,96691.19
2023-01-17T12:11:17.169Z,96706.88
2023-01-17T12:14:15.152Z,96698.44
2023-01-17T12:16:54.214Z,96661.72
2023-01-17T12:19:45.909Z,96677.06
2023-01-17T12:22:34.103Z,96693.06
2023-01-17T12:25:15.371Z,96695.75
2023-01-17T12:28:00.477Z,96679.63
2023-01-17T12:30:51.816Z,96675.25
2023-01-17T12:33:33.882Z,96675.41
2023-01-17T12:36:17.786Z,96686.34
2023-01-17T12:38:48.131Z,96678.06
2023-01-17T12:41:26.897Z,96685.97
2023-01-17T12:43:59.008Z,96677.88
2023-01-17T12:46:38.897Z,96666.06
2023-01-17T12:49:38.711Z,96670.47
2023-01-17T12:52:29.418Z,96669.28
2023-01-17T12:55:03.157Z,96661.72
2023-01-17T12:57:38.582Z,96671.16
2023-01-17T13:00:08.312Z,96677.06
2023-01-17T13:02:47.429Z,96664.63
2023-01-17T13:05:26.160Z,96657.81
2023-01-17T13:08:03.420Z,96663.41
2023-01-17T13:10:39.762Z,96642.88
2023-01-17T13:13:37.293Z,96661.94
2023-01-17T13:16:15.397Z,96659.34
2023-01-17T13:18:46.740Z,96650.06
2023-01-17T13:21:30.525Z,96650.56
2023-01-17T13:24:20.613Z,96641.84
2023-01-17T13:27:07.072Z,96631.56
2023-01-17T13:30:15.607Z,96644.06
2023-01-17T13:33:01.676Z,96636.97
2023-01-17T13:35:46.598Z,96634.44
2023-01-17T13:38:22.295Z,96638.69
2023-01-17T13:41:07.603Z,96641.75
2023-01-17T13:44:03.185Z,96641.91
2023-01-17T13:46:32.063Z,96645.28
2023-01-17T13:49:34.170Z,96641.59
2023-01-17T13:52:11.146Z,96653.03
2023-01-17T13:54:55.558Z,96645.59
2023-01-17T13:57:33.028Z,96639.88
2023-01-17T14:00:40.488Z,96649.97
2023-01-17T14:03:12.117Z,96659.25
2023-01-17T14:05:39.184Z,96673.53
2023-01-17T14:08:18.572Z,96638.03
2023-01-17T14:10:50.804Z,96602.31
2023-01-17T14:13:37.371Z,96630.31
2023-01-17T14:16:31.520Z,96616.34
2023-01-17T14:18:59.026Z,96628.63
2023-01-17T14:21:29.122Z,96630.63
2023-01-17T14:24:15.224Z,96625.91
2023-01-17T14:27:10.298Z,96635.88
2023-01-17T14:29:49.485Z,96636.38
2023-01-17T14:32:22.163Z,96643.97
2023-01-17T14:34:51.399Z,96666.88
2023-01-17T14:37:49.281Z,96660.47
2023-01-17T14:40:18.492Z,96658.44
2023-01-17T14:42:47.578Z,96630.53
2023-01-17T14:45:22.138Z,96625.78
2023-01-17T14:47:52.178Z,96633.19
2023-01-17T14:50:35.167Z,96623.75
2023-01-17T14:53:08.724Z,96625.47
2023-01-17T14:55:36.040Z,96622.75
2023-01-17T14:58:02.938Z,96625.59
2023-01-17T15:00:31.078Z,96622.06
2023-01-17T15:02:59.518Z,96612.16
2023-01-17T15:05:29.014Z,96617.00
2023-01-17T15:07:58.328Z,96609.63
2023-01-17T15:10:31.780Z,96594.31
2023-01-17T15:13:07.840Z,96609.28
2023-01-17T15:15:38.577Z,96615.69
2023-01-17T15:18:14.604Z,96630.13
2023-01-17T15:20:49.308Z,96630.63
2023-01-17T15:23:20.535Z,96635.00
2023-01-17T15:25:49.859Z,96632.13
2023-01-17T15:28:18.068Z,96608.25
2023-01-17T15:31:09.217Z,96603.53
2023-01-17T15:33:39.305Z,96614.66
2023-01-17T15:36:34.756Z,96609.78
2023-01-17T15:39:07.377Z,96624.44
2023-01-17T15:41:36.200Z,96623.75
2023-01-17T15:44:04.981Z,96621.72
2023-01-17T15:46:41.160Z,96626.63
2023-01-17T15:49:20.365Z,96618.00
2023-01-17T15:52:08.938Z,96627.78
2023-01-17T15:54:40.739Z,96639.53
2023-01-17T15:57:22.685Z,96628.06
2023-01-17T16:00:14.905Z,96613.59
2023-01-17T16:02:44.463Z,96623.22
2023-01-17T16:05:33.314Z,96631.84
2023-01-17T16:08:03.420Z,96630.63
2023-01-17T16:10:39.138Z,96624.06
2023-01-17T16:13:08.408Z,96606.41
2023-01-17T16:15:36.905Z,96597.44
2023-01-17T16:18:09.630Z,96607.41
2023-01-17T16:20:46.676Z,96612.63
2023-01-17T16:23:17.274Z,96626.44
2023-01-17T16:25:44.732Z,96611.47
2023-01-17T16:28:12.063Z,96608.59
2023-01-17T16:30:41.367Z,96611.63
2023-01-17T16:33:11.523Z,96623.22
2023-01-17T16:35:39.555Z,96623.06
2023-01-17T16:38:15.773Z,96607.44
2023-01-17T16:40:44.696Z,96612.31
2023-01-17T16:43:13.660Z,96609.97
2023-01-17T16:45:52.891Z,96623.78
2023-01-17T16:48:20.744Z,96631.19
2023-01-17T16:50:53.129Z,96618.41
2023-01-17T16:53:24.670Z,96614.53
2023-01-17T16:55:55.553Z,96608.31
2023-01-17T16:58:22.474Z,96619.75
2023-01-17T17:00:50.456Z,96602.72
2023-01-17T17:03:19.529Z,96613.16
2023-01-17T17:05:55.336Z,96632.19
2023-01-17T17:08:22.476Z,96618.38
2023-01-17T17:10:51.819Z,96611.50
2023-01-17T17:13:18.755Z,96614.34
2023-01-17T17:15:45.950Z,96630.00
2023-01-17T17:18:17.500Z,96640.25
2023-01-17T17:20:45.541Z,96633.00
2023-01-17T17:23:12.506Z,96630.47
2023-01-17T17:25:41.511Z,96634.50
2023-01-17T17:28:10.892Z,96640.56
2023-01-17T17:30:37.849Z,96641.91
2023-01-17T17:33:04.761Z,96632.97
2023-01-17T17:35:34.524Z,96630.81
2023-01-17T17:38:01.376Z,96648.31
2023-01-17T17:40:31.035Z,96651.06
2023-01-17T17:42:57.827Z,96659.28
2023-01-17T17:45:24.771Z,96650.53
2023-01-17T17:47:51.779Z,96647.63
2023-01-17T17:50:18.919Z,96640.88
2023-01-17T17:52:45.759Z,96635.47
2023-01-17T17:55:13.278Z,96630.75
2023-01-17T17:57:40.199Z,96628.38
2023-01-17T18:00:07.804Z,96615.25
2023-01-17T18:02:34.728Z,96623.34
2023-01-17T18:05:02.479Z,96630.94
2023-01-17T18:07:32.769Z,96640.72
2023-01-17T18:10:02.796Z,96631.97
2023-01-17T18:12:29.754Z,96621.72
2023-01-17T18:14:56.640Z,96621.19
2023-01-17T18:17:23.619Z,96615.66
2023-01-17T18:19:51.103Z,96622.88
2023-01-17T18:22:18.315Z,96622.03
2023-01-17T18:24:46.365Z,96610.47
2023-01-17T18:27:14.147Z,96610.09
2023-01-17T18:29:43.426Z,96618.16
2023-01-17T18:32:10.372Z,96607.56
2023-01-17T18:34:41.513Z,96599.81
2023-01-17T18:37:08.805Z,96607.56
2023-01-17T18:39:35.736Z,96603.81
2023-01-17T18:42:02.589Z,96596.72
2023-01-17T18:44:30.266Z,96604.63
2023-01-17T18:47:04.575Z,96601.28
2023-01-17T18:49:33.778Z,96606.84
2023-01-17T18:52:01.244Z,96614.91
2023-01-17T18:54:28.356Z,96606.00
2023-01-17T18:56:56.246Z,96597.03
2023-01-17T18:59:23.570Z,96603.63
2023-01-17T19:01:50.543Z,96603.09
2023-01-17T19:04:17.902Z,96603.75
2023-01-17T19:06:47.775Z,96610.28
2023-01-17T19:09:15.653Z,96608.94
2023-01-17T19:11:44.971Z,96615.34
2023-01-17T19:14:12.983Z,96633.72
2023-01-17T19:16:41.456Z,96634.38
2023-01-17T19:19:11.164Z,96626.84
2023-01-17T19:21:38.444Z,96632.75
2023-01-17T19:24:05.581Z,96629.38
2023-01-17T19:26:33.289Z,96635.25
2023-01-17T19:29:00.467Z,96630.38
2023-01-17T19:31:29.495Z,96640.47
2023-01-17T19:33:59.197Z,96624.13
2023-01-17T19:36:35.665Z,96632.72
2023-01-17T19:39:06.343Z,96604.78
2023-01-17T19:41:35.631Z,96627.69
2023-01-17T19:44:09.939Z,96642.53
2023-01-17T19:46:37.578Z,96644.88
2023-01-17T19:49:07.656Z,96643.19
2023-01-17T19:51:35.954Z,96647.25
2023-01-17T19:54:04.221Z,96644.22
2023-01-17T19:56:31.639Z,96638.16
2023-01-17T19:59:01.409Z,96640.16
2023-01-17T20:01:31.676Z,96635.47
2023-01-17T20:03:59.486Z,96639.84
2023-01-17T20:06:29.278Z,96643.19
2023-01-17T20:08:59.264Z,96647.91
2023-01-17T20:11:27.459Z,96646.06
2023-01-17T20:13:56.822Z,96644.38
2023-01-17T20:16:25.465Z,96650.78
2023-01-17T20:18:52.913Z,96651.16
2023-01-17T20:21:24.684Z,96661.38
2023-01-17T20:23:54.452Z,96649.63
2023-01-17T20:26:31.259Z,96640.00
2023-01-17T20:28:58.149Z,96667.78
2023-01-17T20:31:25.993Z,96663.91
2023-01-17T20:33:55.145Z,96662.03
2023-01-17T20:36:24.251Z,96656.47
2023-01-17T20:38:51.425Z,96653.47
2023-01-17T20:41:20.210Z,96669.97
2023-01-17T20:43:53.800Z,96641.19
2023-01-17T20:46:23.194Z,96643.91
2023-01-17T20:48:53.044Z,96645.75
2023-01-17T20:51:24.746Z,96645.22
2023-01-17T20:53:56.047Z,96666.09
2023-01-17T20:56:23.798Z,96651.59
2023-01-17T20:58:54.471Z,96632.41
2023-01-17T21:01:22.760Z,96631.75
2023-01-17T21:03:51.774Z,96646.56
2023-01-17T21:06:22.627Z,96643.19
2023-01-17T21:08:50.431Z,96644.38
2023-01-17T21:11:19.847Z,96637.97
2023-01-17T21:13:48.855Z,96651.78
2023-01-17T21:16:16.975Z,96647.91
2023-01-17T21:18:48.020Z,96668.75
2023-01-17T21:21:22.186Z,96659.50
2023-01-17T21:23:50.877Z,96654.63
2023-01-17T21:26:19.134Z,96643.84
2023-01-17T21:28:47.566Z,96628.66
2023-01-17T21:31:26.433Z,96640.44
2023-01-17T21:33:59.128Z,96644.66
2023-01-17T21:36:35.593Z,96642.13
2023-01-17T21:39:06.681Z,96615.03
2023-01-17T21:41:36.847Z,96627.44
2023-01-17T21:44:13.105Z,96638.94
2023-01-17T21:46:41.112Z,96654.97
2023-01-17T21:49:12.945Z,96654.22
2023-01-17T21:51:54.147Z,96650.31
2023-01-17T21:54:45.128Z,96660.59
2023-01-17T21:57:37.851Z,96671.13
2023-01-17T22:00:09.344Z,96677.81
2023-01-17T22:02:40.034Z,96676.31
2023-01-17T22:05:08.855Z,96666.00
2023-01-17T22:07:36.178Z,96667.31
2023-01-17T22:10:03.437Z,96660.06
2023-01-17T22:12:30.263Z,96657.03
2023-01-17T22:14:57.750Z,96653.66
2023-01-17T22:17:24.578Z,96660.69
2023-01-17T22:19:51.681Z,96655.56
2023-01-17T22:22:18.680Z,96646.91
2023-01-17T22:24:45.911Z,96658.88
2023-01-17T22:27:15.186Z,96655.88
2023-01-17T22:29:46.009Z,96658.97
2023-01-17T22:32:13.178Z,96657.63
2023-01-17T22:34:39.979Z,96666.09
2023-01-17T22:37:10.440Z,96668.06
2023-01-17T22:39:38.752Z,96664.72
2023-01-17T22:42:06.427Z,96653.75
2023-01-17T22:44:35.265Z,96657.78
2023-01-17T22:47:03.318Z,96663.56
2023-01-17T22:49:30.135Z,96663.75
2023-01-17T22:51:57.599Z,96663.09
2023-01-17T22:54:24.519Z,96652.53
2023-01-17T22:56:51.586Z,96647.78
2023-01-17T22:59:18.704Z,96648.50
2023-01-17T23:01:49.813Z,96655.22
2023-01-17T23:04:17.339Z,96663.97
2023-01-17T23:06:44.807Z,96644.91
2023-01-17T23:09:14.757Z,96647.25
2023-01-17T23:11:52.494Z,96639.88
2023-01-17T23:14:22.823Z,96645.38
2023-01-17T23:17:28.807Z,96643.00
2023-01-17T23:19:55.907Z,96629.50
2023-01-17T23:22:27.656Z,96622.34
2023-01-17T23:25:01.278Z,96619.00
2023-01-17T23:27:51.032Z,96627.47
2023-01-17T23:30:25.295Z,96641.31
2023-01-17T23:32:55.500Z,96632.56
2023-01-17T23:35:25.762Z,96626.31
2023-01-17T23:38:11.288Z,96627.88
2023-01-17T23:40:39.719Z,96639.50
2023-01-17T23:43:24.129Z,96641.38
2023-01-17T23:45:53.446Z,96644.91
2023-01-17T23:48:21.322Z,96644.38
2023-01-17T23:50:48.828Z,96649.72
2023-01-17T23:53:23.950Z,96648.66
2023-01-17T23:55:54.328Z,96636.47
2023-01-17T23:58:26.198Z,96646.97
